Time;durP1;ratioP1;P1;durP2;ratioP2;P2;SDS_P1;SDS_P2;PMS_P1;PMS_P2;Temp;Humidity;BMP_temperature;BMP_pressure;BME280_temperature;BME280_humidity;BME280_pressure;Samples;Min_cycle;Max_cycle;Signal;HPM_P1;HPM_P2
2024/01/20 00:00:41;;;;;;;;;;;;;;;20.28;29.74;96555.44;10466163;28;2891;-65
2024/01/20 00:05:42;;;;;;;;;;;;;;;20.24;29.65;96548.28;10469215;28;2997;-64
2024/01/20 00:10:42;;;;;;;;;;;;;;;20.23;29.60;96542.25;10469292;28;3013;-64
2024/01/20 00:15:42;;;;;;;;;;;;;;;20.25;29.37;96549.88;10467001;28;3090;-64
2024/01/20 00:20:45;;;;;;;;;;;;;;;20.25;29.12;96555.97;10470940;28;2919;-63
2024/01/20 00:25:45;;;;;;;;;;;;;;;20.23;29.13;96549.34;10465945;28;3064;-64
2024/01/20 00:30:46;;;;;;;;;;;;;;;20.22;28.62;96550.38;10468204;28;2914;-63
2024/01/20 00:35:48;;;;;;;;;;;;;;;20.22;28.58;96547.75;10466527;28;3101;-64
2024/01/20 00:40:48;;;;;;;;;;;;;;;20.23;28.56;96546.72;10462211;28;2951;-65
2024/01/20 00:45:49;;;;;;;;;;;;;;;20.20;28.61;96545.38;10462605;28;2984;-64
2024/01/20 00:50:50;;;;;;;;;;;;;;;20.19;28.39;96540.34;10466346;28;2933;-64
2024/01/20 00:55:50;;;;;;;;;;;;;;;20.21;27.96;96551.44;10467705;28;3036;-64
2024/01/20 01:00:51;;;;;;;;;;;;;;;20.20;28.30;96560.38;10467159;28;3065;-64
2024/01/20 01:05:51;;;;;;;;;;;;;;;20.20;28.03;96553.28;10469228;28;3111;-64
2024/01/20 01:10:54;;;;;;;;;;;;;;;20.17;27.99;96552.97;10467820;28;3005;-65
2024/01/20 01:15:54;;;;;;;;;;;;;;;20.15;27.96;96545.28;10469668;28;2941;-64
2024/01/20 01:20:54;;;;;;;;;;;;;;;20.16;28.00;96539.00;10464195;28;2894;-64
2024/01/20 01:25:57;;;;;;;;;;;;;;;20.17;27.74;96542.44;10470548;28;3218;-64
2024/01/20 01:30:57;;;;;;;;;;;;;;;20.17;27.58;96537.94;10466172;28;3032;-63
2024/01/20 01:35:57;;;;;;;;;;;;;;;20.15;27.55;96541.88;10465486;28;2969;-64
2024/01/20 01:40:57;;;;;;;;;;;;;;;20.18;27.40;96536.09;10465588;28;2958;-63
2024/01/20 01:45:58;;;;;;;;;;;;;;;20.17;27.28;96539.78;10461910;28;2929;-64
2024/01/20 01:50:58;;;;;;;;;;;;;;;20.17;27.13;96532.66;10460433;28;2988;-63
2024/01/20 01:56:01;;;;;;;;;;;;;;;20.15;27.04;96528.72;10466364;28;2985;-66
2024/01/20 02:01:02;;;;;;;;;;;;;;;20.13;26.99;96543.97;10465587;28;2994;-66
2024/01/20 02:06:02;;;;;;;;;;;;;;;20.16;27.14;96546.88;10461561;28;3001;-63
2024/01/20 02:11:02;;;;;;;;;;;;;;;20.14;27.04;96550.81;10462333;28;2986;-65
2024/01/20 02:16:03;;;;;;;;;;;;;;;20.16;27.10;96548.72;10463909;28;2965;-63
2024/01/20 02:21:06;;;;;;;;;;;;;;;20.12;27.04;96545.81;10464862;28;3051;-65
2024/01/20 02:26:07;;;;;;;;;;;;;;;20.15;26.54;96555.03;10465727;28;3112;-64
2024/01/20 02:31:07;;;;;;;;;;;;;;;20.15;26.83;96568.22;10461857;28;3126;-65
2024/01/20 02:36:07;;;;;;;;;;;;;;;20.13;26.89;96575.56;10461792;28;3001;-65
2024/01/20 02:41:07;;;;;;;;;;;;;;;20.13;26.59;96591.34;10475016;28;3008;-64
2024/01/20 02:46:08;;;;;;;;;;;;;;;20.15;26.52;96605.84;10465555;28;2949;-65
2024/01/20 02:51:09;;;;;;;;;;;;;;;20.14;26.64;96591.09;10462219;28;2910;-65
2024/01/20 02:56:09;;;;;;;;;;;;;;;20.14;26.19;96577.94;10472757;28;3068;-65
2024/01/20 03:01:09;;;;;;;;;;;;;;;20.12;26.08;96580.03;10473490;28;2895;-65
2024/01/20 03:06:09;;;;;;;;;;;;;;;20.14;26.47;96585.84;10501904;28;2977;-64
2024/01/20 03:11:10;;;;;;;;;;;;;;;20.12;26.23;96566.06;10470885;28;2949;-64
2024/01/20 03:16:10;;;;;;;;;;;;;;;20.14;25.86;96574.50;10469032;28;2981;-67
2024/01/20 03:21:10;;;;;;;;;;;;;;;20.14;26.49;96571.88;10469943;28;2981;-65
2024/01/20 03:26:10;;;;;;;;;;;;;;;20.12;26.10;96574.75;10469433;28;2917;-65
2024/01/20 03:31:11;;;;;;;;;;;;;;;20.13;26.03;96578.19;10472138;28;2968;-64
2024/01/20 03:36:11;;;;;;;;;;;;;;;20.17;25.85;96592.44;10471654;28;2941;-65
2024/01/20 03:41:12;;;;;;;;;;;;;;;20.12;26.02;96590.56;10463251;28;3068;-66
2024/01/20 03:46:12;;;;;;;;;;;;;;;20.19;26.06;96590.34;10469006;28;2972;-66
2024/01/20 03:51:12;;;;;;;;;;;;;;;20.15;25.67;96592.66;10473760;28;2824;-65
2024/01/20 03:56:12;;;;;;;;;;;;;;;20.21;25.90;96604.09;10470863;28;2946;-65
2024/01/20 04:01:13;;;;;;;;;;;;;;;20.14;25.74;96598.19;10468589;28;3068;-65
2024/01/20 04:06:13;;;;;;;;;;;;;;;20.16;25.54;96598.75;10471549;28;3406;-65
2024/01/20 04:11:14;;;;;;;;;;;;;;;20.15;25.79;96612.97;10469197;28;2999;-65
2024/01/20 04:16:14;;;;;;;;;;;;;;;20.18;25.80;96625.59;10471566;28;2933;-66
2024/01/20 04:21:14;;;;;;;;;;;;;;;20.17;25.46;96631.94;10470813;28;2940;-65
2024/01/20 04:26:16;;;;;;;;;;;;;;;20.15;25.65;96636.66;10469012;28;2892;-65
2024/01/20 04:31:16;;;;;;;;;;;;;;;20.14;25.76;96651.63;10474178;28;2836;-65
2024/01/20 04:36:16;;;;;;;;;;;;;;;20.15;25.29;96653.22;10469457;28;3004;-65
2024/01/20 04:41:16;;;;;;;;;;;;;;;20.20;25.42;96665.66;10467778;28;3079;-64
2024/01/20 04:46:17;;;;;;;;;;;;;;;20.17;25.29;96680.09;10471005;28;2986;-65
2024/01/20 04:51:17;;;;;;;;;;;;;;;20.19;25.28;96674.59;10468756;28;3221;-65
2024/01/20 04:56:22;;;;;;;;;;;;;;;20.16;25.57;96677.72;10503483;28;2990;-65
2024/01/20 05:01:22;;;;;;;;;;;;;;;20.17;25.22;96679.31;10466585;28;2913;-65
2024/01/20 05:06:22;;;;;;;;;;;;;;;20.20;25.23;96678.84;10471141;28;3040;-65
2024/01/20 05:11:23;;;;;;;;;;;;;;;20.21;24.99;96688.34;10474117;28;2950;-65
2024/01/20 05:16:23;;;;;;;;;;;;;;;20.14;25.01;96682.44;10467941;28;2966;-65
2024/01/20 05:21:23;;;;;;;;;;;;;;;20.19;24.86;96700.91;10466008;28;2953;-66
2024/01/20 05:26:23;;;;;;;;;;;;;;;20.17;24.88;96695.88;10466979;28;3025;-68
2024/01/20 05:31:24;;;;;;;;;;;;;;;20.17;24.84;96705.63;10467297;28;3002;-63
2024/01/20 05:36:24;;;;;;;;;;;;;;;20.14;25.09;96709.56;10466247;28;2932;-63
2024/01/20 05:41:25;;;;;;;;;;;;;;;20.17;24.79;96721.44;10495870;28;2949;-64
2024/01/20 05:46:25;;;;;;;;;;;;;;;20.17;24.89;96730.09;10464472;28;3000;-63
2024/01/20 05:51:25;;;;;;;;;;;;;;;20.14;24.91;96732.44;10463411;28;2891;-64
2024/01/20 05:56:26;;;;;;;;;;;;;;;20.14;25.12;96740.34;10469353;28;2834;-64
2024/01/20 06:01:26;;;;;;;;;;;;;;;20.18;24.73;96746.69;10469466;28;2926;-64
2024/01/20 06:06:26;;;;;;;;;;;;;;;20.16;24.94;96744.31;10467198;28;2962;-64
2024/01/20 06:11:26;;;;;;;;;;;;;;;20.16;24.55;96748.78;10467020;28;2972;-64
2024/01/20 06:16:27;;;;;;;;;;;;;;;20.19;24.64;96743.03;10465577;28;3060;-63
2024/01/20 06:21:27;;;;;;;;;;;;;;;20.18;24.45;96746.69;10468447;28;3285;-63
2024/01/20 06:26:27;;;;;;;;;;;;;;;20.17;24.74;96740.63;10467543;28;3269;-65
2024/01/20 06:31:28;;;;;;;;;;;;;;;20.18;24.45;96733.53;10480311;28;3114;-65
2024/01/20 06:36:28;;;;;;;;;;;;;;;20.16;24.59;96733.78;10472938;28;2880;-65
2024/01/20 06:41:28;;;;;;;;;;;;;;;20.18;24.37;96734.34;10472527;28;2850;-65
2024/01/20 06:46:28;;;;;;;;;;;;;;;20.16;24.48;96738.25;10473380;28;3021;-65
2024/01/20 06:51:29;;;;;;;;;;;;;;;19.87;33.73;96750.00;10474190;28;2898;-65
2024/01/20 06:56:29;;;;;;;;;;;;;;;19.64;37.81;96755.53;10476112;28;2950;-65
2024/01/20 07:01:29;;;;;;;;;;;;;;;19.52;38.79;96752.19;10474536;28;3132;-64
2024/01/20 07:06:30;;;;;;;;;;;;;;;19.32;40.55;96764.00;10478035;28;2889;-65
2024/01/20 07:11:30;;;;;;;;;;;;;;;19.21;40.65;96764.88;10475374;28;2999;-65
2024/01/20 07:16:30;;;;;;;;;;;;;;;19.10;42.19;96764.97;10474359;28;2969;-65
2024/01/20 07:21:31;;;;;;;;;;;;;;;19.00;42.49;96773.47;10472986;28;3009;-65
2024/01/20 07:26:31;;;;;;;;;;;;;;;18.91;42.92;96772.28;10472295;28;3076;-65
2024/01/20 07:31:31;;;;;;;;;;;;;;;18.84;43.80;96783.97;10475654;28;2945;-66
2024/01/20 07:36:32;;;;;;;;;;;;;;;18.77;44.45;96789.41;10472452;28;2895;-65
2024/01/20 07:41:32;;;;;;;;;;;;;;;18.72;44.31;96791.91;10471459;28;2891;-65
2024/01/20 07:46:32;;;;;;;;;;;;;;;18.63;45.26;96803.81;10475891;28;2900;-65
2024/01/20 07:51:33;;;;;;;;;;;;;;;19.12;36.79;96799.69;10473377;28;2981;-64
2024/01/20 07:56:33;;;;;;;;;;;;;;;19.22;35.41;96805.91;10503562;27;3269;-64
2024/01/20 08:01:33;;;;;;;;;;;;;;;19.37;35.03;96808.00;10473650;28;3030;-62
2024/01/20 08:06:37;;;;;;;;;;;;;;;19.49;33.60;96812.13;10473833;28;2890;-62
2024/01/20 08:11:37;;;;;;;;;;;;;;;19.56;32.20;96822.47;10469098;28;3020;-62
2024/01/20 08:16:37;;;;;;;;;;;;;;;19.65;31.52;96825.50;10476330;28;3048;-63
2024/01/20 08:21:37;;;;;;;;;;;;;;;19.61;35.51;96830.44;10477889;28;3162;-61
2024/01/20 08:26:38;;;;;;;;;;;;;;;19.66;36.62;96841.03;10473518;28;2957;-59
2024/01/20 08:31:38;;;;;;;;;;;;;;;19.71;37.38;96842.94;10476667;28;2930;-61
2024/01/20 08:36:38;;;;;;;;;;;;;;;19.85;34.94;96852.06;10474665;28;2974;-65
2024/01/20 08:41:39;;;;;;;;;;;;;;;19.89;35.76;96850.56;10480837;28;2788;-66
2024/01/20 08:46:39;;;;;;;;;;;;;;;19.95;34.90;96857.47;10471685;28;2997;-62
2024/01/20 08:51:39;;;;;;;;;;;;;;;19.94;34.51;96858.53;10469255;28;3016;-63
2024/01/20 08:56:40;;;;;;;;;;;;;;;20.02;33.94;96861.56;10472164;28;3149;-57
2024/01/20 09:01:40;;;;;;;;;;;;;;;20.13;33.05;96871.16;10473880;28;2950;-58
2024/01/20 09:06:40;;;;;;;;;;;;;;;20.09;33.38;96885.06;10472280;28;2988;-58
2024/01/20 09:11:40;;;;;;;;;;;;;;;20.13;33.54;96886.19;10468300;28;2918;-59
2024/01/20 09:16:41;;;;;;;;;;;;;;;20.22;33.52;96897.88;10472485;28;2897;-58
2024/01/20 09:21:43;;;;;;;;;;;;;;;20.38;33.48;96899.66;10469037;28;2953;-59
2024/01/20 09:26:43;;;;;;;;;;;;;;;20.36;33.68;96896.50;10469881;28;3174;-59
2024/01/20 09:31:43;;;;;;;;;;;;;;;20.49;32.77;96901.41;10466735;28;2910;-58
2024/01/20 09:36:45;;;;;;;;;;;;;;;20.46;32.65;96901.91;10465107;28;3136;-55
2024/01/20 09:41:45;;;;;;;;;;;;;;;20.49;32.79;96895.34;10454100;28;2897;-59
2024/01/20 09:46:45;;;;;;;;;;;;;;;20.58;32.21;96889.41;10465390;28;2938;-57
2024/01/20 09:51:49;;;;;;;;;;;;;;;20.37;33.99;96907.81;10469043;28;2996;-57
2024/01/20 09:56:49;;;;;;;;;;;;;;;20.46;33.58;96895.84;10470245;28;2856;-58
2024/01/20 10:01:51;;;;;;;;;;;;;;;20.34;34.38;96888.03;10502100;28;3057;-59
2024/01/20 10:06:51;;;;;;;;;;;;;;;20.29;34.15;96906.41;10466949;28;3050;-58
2024/01/20 10:11:52;;;;;;;;;;;;;;;20.32;33.25;96895.38;10468627;28;2849;-53
2024/01/20 10:16:52;;;;;;;;;;;;;;;20.33;33.65;96901.44;10463906;28;3005;-58
2024/01/20 10:21:52;;;;;;;;;;;;;;;20.37;33.60;96897.28;10465575;28;2925;-59
2024/01/20 10:26:53;;;;;;;;;;;;;;;20.37;33.02;96890.19;10466247;28;3206;-59
2024/01/20 10:31:54;;;;;;;;;;;;;;;20.04;30.32;96898.16;10462231;28;3033;-56
2024/01/20 10:36:54;;;;;;;;;;;;;;;19.17;29.77;96889.94;10463390;28;2890;-59
2024/01/20 10:41:54;;;;;;;;;;;;;;;18.71;30.44;96887.53;10464713;28;3000;-58
2024/01/20 10:46:55;;;;;;;;;;;;;;;19.32;32.03;96892.00;10479644;28;2926;-58
2024/01/20 10:51:55;;;;;;;;;;;;;;;19.51;34.25;96895.25;10466701;28;2961;-67
2024/01/20 10:56:55;;;;;;;;;;;;;;;19.64;33.79;96898.34;10467083;28;2907;-67
2024/01/20 11:01:56;;;;;;;;;;;;;;;19.76;34.03;96895.63;10465182;28;3233;-65
2024/01/20 11:06:56;;;;;;;;;;;;;;;20.01;34.72;96898.66;10462267;28;3222;-61
2024/01/20 11:11:59;;;;;;;;;;;;;;;20.17;35.30;96900.44;10471150;28;2810;-61
2024/01/20 11:17:12;;;;;;;;;;;;;;;20.37;36.02;96890.19;10469998;28;3048;-61
2024/01/20 11:22:32;;;;;;;;;;;;;;;20.40;35.67;96875.75;10471878;28;2885;-61
2024/01/20 11:27:53;;;;;;;;;;;;;;;20.41;34.89;96877.31;10473001;28;3099;-62
2024/01/20 11:32:54;;;;;;;;;;;;;;;20.42;34.57;96876.31;10467685;28;2921;-61
2024/01/20 11:37:57;;;;;;;;;;;;;;;20.46;33.72;96870.31;10474581;28;3100;-60
2024/01/20 11:43:05;;;;;;;;;;;;;;;20.38;35.61;96873.34;10472245;28;2980;-62
2024/01/20 11:48:08;;;;;;;;;;;;;;;20.45;34.29;96887.13;10475410;28;2985;-61
2024/01/20 11:53:08;;;;;;;;;;;;;;;20.41;35.47;96883.41;10470703;28;2997;-62
2024/01/20 11:58:08;;;;;;;;;;;;;;;20.36;35.74;96879.91;10473291;28;2945;-61
2024/01/20 12:03:09;;;;;;;;;;;;;;;20.41;35.31;96888.66;10475178;28;3027;-61
2024/01/20 12:08:09;;;;;;;;;;;;;;;20.37;36.79;96882.28;10473575;28;3012;-62
2024/01/20 12:13:12;;;;;;;;;;;;;;;20.37;36.32;96873.59;10471609;28;2945;-60
2024/01/20 12:18:13;;;;;;;;;;;;;;;20.32;36.09;96874.31;10469974;28;2981;-61
2024/01/20 12:23:16;;;;;;;;;;;;;;;20.31;37.03;96878.00;10468581;28;2902;-61
2024/01/20 12:28:17;;;;;;;;;;;;;;;20.34;37.67;96877.50;10472170;28;2945;-61
2024/01/20 12:33:17;;;;;;;;;;;;;;;20.28;37.07;96879.28;10474221;28;3054;-62
2024/01/20 12:38:17;;;;;;;;;;;;;;;20.32;37.16;96868.28;10505733;28;3294;-61
2024/01/20 12:43:18;;;;;;;;;;;;;;;20.33;37.46;96867.22;10470757;28;3028;-61
2024/01/20 12:48:18;;;;;;;;;;;;;;;20.34;37.01;96856.44;10468706;28;2921;-61
2024/01/20 12:53:18;;;;;;;;;;;;;;;20.35;37.36;96863.31;10477882;28;3199;-62
2024/01/20 12:58:18;;;;;;;;;;;;;;;20.38;37.10;96847.00;10470608;28;3016;-62
2024/01/20 13:03:19;;;;;;;;;;;;;;;20.39;38.05;96845.97;10473810;28;2965;-61
2024/01/20 13:08:19;;;;;;;;;;;;;;;20.45;37.73;96850.25;10473873;28;2924;-62
2024/01/20 13:13:21;;;;;;;;;;;;;;;20.45;37.04;96846.81;10471207;28;3026;-62
2024/01/20 13:18:21;;;;;;;;;;;;;;;20.48;37.19;96841.06;10469754;28;3398;-62
2024/01/20 13:23:21;;;;;;;;;;;;;;;20.52;37.35;96839.53;10466640;28;2911;-62
2024/01/20 13:28:23;;;;;;;;;;;;;;;20.52;36.84;96840.34;10468763;28;2863;-62
2024/01/20 13:33:24;;;;;;;;;;;;;;;20.57;37.47;96832.47;10470452;28;3386;-62
2024/01/20 13:38:26;;;;;;;;;;;;;;;20.63;38.07;96835.97;10471187;28;3330;-62
2024/01/20 13:43:26;;;;;;;;;;;;;;;20.66;37.71;96823.09;10467035;28;2869;-61
2024/01/20 13:48:26;;;;;;;;;;;;;;;20.67;37.32;96824.69;10472823;28;2761;-62
2024/01/20 13:53:27;;;;;;;;;;;;;;;20.73;38.54;96821.06;10470365;28;2806;-61
2024/01/20 13:58:27;;;;;;;;;;;;;;;20.77;39.69;96816.09;10464412;28;2943;-61
2024/01/20 14:03:27;;;;;;;;;;;;;;;20.80;39.58;96808.47;10474032;28;2785;-62
2024/01/20 14:08:28;;;;;;;;;;;;;;;20.82;40.94;96814.31;10467694;28;2826;-62
2024/01/20 14:13:28;;;;;;;;;;;;;;;20.84;39.00;96828.03;10474749;28;2915;-62
2024/01/20 14:18:28;;;;;;;;;;;;;;;20.83;40.90;96823.81;10466590;28;2916;-63
2024/01/20 14:23:28;;;;;;;;;;;;;;;20.83;41.43;96812.47;10467027;28;2889;-62
2024/01/20 14:28:29;;;;;;;;;;;;;;;20.79;40.04;96825.31;10469068;28;2789;-63
2024/01/20 14:33:29;;;;;;;;;;;;;;;20.72;38.87;96823.94;10469820;28;2850;-64
2024/01/20 14:38:30;;;;;;;;;;;;;;;20.68;39.85;96812.31;10475442;28;3322;-63
2024/01/20 14:43:30;;;;;;;;;;;;;;;20.57;39.54;96818.50;10480008;28;2145;-63
2024/01/20 14:48:30;;;;;;;;;;;;;;;20.52;38.12;96821.09;10476585;28;1548;-61
2024/01/20 14:53:30;;;;;;;;;;;;;;;20.45;38.23;96820.50;10494771;28;2318;-61
2024/01/20 14:58:31;;;;;;;;;;;;;;;20.47;38.47;96824.47;10495915;28;1723;-61
2024/01/20 15:03:31;;;;;;;;;;;;;;;20.54;39.03;96822.44;10492513;28;1910;-61
2024/01/20 15:08:31;;;;;;;;;;;;;;;20.45;39.83;96808.13;10488804;28;1498;-61
2024/01/20 15:13:32;;;;;;;;;;;;;;;20.46;39.80;96816.81;10490244;28;1874;-60
2024/01/20 15:18:32;;;;;;;;;;;;;;;20.43;37.02;96828.66;10492024;28;2248;-61
2024/01/20 15:23:32;;;;;;;;;;;;;;;20.51;39.92;96830.03;10490640;28;2150;-60
2024/01/20 15:28:32;;;;;;;;;;;;;;;20.53;39.95;96839.28;10476028;28;2974;-61
2024/01/20 15:33:33;;;;;;;;;;;;;;;20.52;41.02;96848.25;10464398;28;2864;-59
2024/01/20 15:38:34;;;;;;;;;;;;;;;20.56;40.63;96856.44;10504138;27;3237;-60
2024/01/20 15:43:34;;;;;;;;;;;;;;;20.53;38.87;96860.34;10473281;28;3255;-59
2024/01/20 15:48:36;;;;;;;;;;;;;;;20.52;40.60;96858.78;10467669;28;2912;-60
2024/01/20 15:53:36;;;;;;;;;;;;;;;20.51;40.92;96857.19;10468907;28;3014;-59
2024/01/20 15:58:36;;;;;;;;;;;;;;;20.53;40.36;96856.91;10467350;28;2842;-60
2024/01/20 16:03:37;;;;;;;;;;;;;;;20.53;41.14;96855.09;10461855;28;3015;-59
2024/01/20 16:08:37;;;;;;;;;;;;;;;20.54;39.80;96864.59;10466400;28;2985;-59
2024/01/20 16:13:37;;;;;;;;;;;;;;;20.51;41.50;96870.34;10465448;28;2904;-59
2024/01/20 16:18:37;;;;;;;;;;;;;;;20.52;40.02;96871.94;10468827;28;2843;-59
2024/01/20 16:23:38;;;;;;;;;;;;;;;20.46;40.90;96875.56;10473422;28;3004;-59
2024/01/20 16:28:38;;;;;;;;;;;;;;;20.47;38.38;96882.41;10470647;28;2859;-59
2024/01/20 16:33:39;;;;;;;;;;;;;;;20.49;39.32;96885.59;10468628;28;3038;-62
2024/01/20 16:38:40;;;;;;;;;;;;;;;20.42;39.89;96887.63;10466057;28;3175;-59
2024/01/20 16:43:40;;;;;;;;;;;;;;;20.45;39.27;96894.22;10468658;28;2953;-60
2024/01/20 16:48:40;;;;;;;;;;;;;;;20.62;38.49;96887.88;10481513;28;3180;-60
2024/01/20 16:53:40;;;;;;;;;;;;;;;20.54;39.92;96887.50;10484656;28;2758;-60
2024/01/20 16:58:41;;;;;;;;;;;;;;;20.68;37.48;96896.63;10482039;28;2323;-60
2024/01/20 17:03:41;;;;;;;;;;;;;;;20.78;38.86;96884.34;10485609;28;2044;-61
2024/01/20 17:08:42;;;;;;;;;;;;;;;20.74;40.01;96891.16;10486477;28;2134;-61
2024/01/20 17:13:44;;;;;;;;;;;;;;;20.85;38.12;96894.72;10483508;28;1700;-60
2024/01/20 17:18:44;;;;;;;;;;;;;;;20.89;39.82;96893.16;10474037;28;2825;-60
2024/01/20 17:23:46;;;;;;;;;;;;;;;20.91;39.92;96881.34;10482762;28;2057;-61
2024/01/20 17:28:46;;;;;;;;;;;;;;;20.94;39.11;96888.75;10483262;28;2295;-60
2024/01/20 17:33:46;;;;;;;;;;;;;;;21.00;40.14;96890.38;10512653;28;1762;-59
2024/01/20 17:38:47;;;;;;;;;;;;;;;20.95;39.57;96900.09;10463723;28;3282;-60
2024/01/20 17:43:47;;;;;;;;;;;;;;;21.05;38.83;96894.94;10483007;28;1967;-60
2024/01/20 17:48:48;;;;;;;;;;;;;;;21.01;39.08;96907.81;10484254;28;1585;-60
2024/01/20 17:53:48;;;;;;;;;;;;;;;20.95;39.85;96902.72;10483695;28;1332;-60
2024/01/20 17:58:48;;;;;;;;;;;;;;;20.89;40.12;96912.41;10481662;28;1590;-60
2024/01/20 18:03:49;;;;;;;;;;;;;;;20.95;40.45;96911.44;10482412;28;2511;-60
2024/01/20 18:08:50;;;;;;;;;;;;;;;20.94;37.57;96925.63;10513550;28;2918;-60
2024/01/20 18:13:50;;;;;;;;;;;;;;;20.97;38.74;96919.88;10483739;28;2041;-63
2024/01/20 18:18:50;;;;;;;;;;;;;;;21.05;39.47;96922.09;10517711;28;1485;-60
2024/01/20 18:23:51;;;;;;;;;;;;;;;21.02;38.81;96921.78;10488168;28;1906;-61
2024/01/20 18:28:51;;;;;;;;;;;;;;;20.92;39.21;96922.47;10494766;28;3075;-61
2024/01/20 18:33:53;;;;;;;;;;;;;;;21.03;38.50;96929.47;10497231;28;2715;-63
2024/01/20 18:38:53;;;;;;;;;;;;;;;20.91;39.13;96926.16;10519793;27;3222;-61
2024/01/20 18:43:53;;;;;;;;;;;;;;;20.93;37.63;96926.69;10498193;28;2032;-61
2024/01/20 18:48:53;;;;;;;;;;;;;;;20.90;37.35;96924.53;10488157;28;2869;-61
2024/01/20 18:53:54;;;;;;;;;;;;;;;20.92;38.00;96917.19;10503262;28;2056;-62
2024/01/20 18:58:54;;;;;;;;;;;;;;;20.94;36.63;96915.09;10494812;28;1572;-63
2024/01/20 19:03:54;;;;;;;;;;;;;;;20.89;38.28;96911.63;10484550;28;1985;-65
2024/01/20 19:08:55;;;;;;;;;;;;;;;20.96;36.44;96913.00;10522481;27;1526;-65
2024/01/20 19:13:56;;;;;;;;;;;;;;;20.89;37.23;96915.06;10492459;28;1682;-64
2024/01/20 19:18:56;;;;;;;;;;;;;;;20.96;37.69;96920.13;10497857;28;1423;-61
2024/01/20 19:23:57;;;;;;;;;;;;;;;20.90;38.44;96924.53;10496723;28;1961;-64
2024/01/20 19:29:00;;;;;;;;;;;;;;;21.00;38.64;96919.38;10484082;28;3080;-64
2024/01/20 19:34:00;;;;;;;;;;;;;;;21.05;38.79;96916.03;10473196;28;2955;-64
2024/01/20 19:39:00;;;;;;;;;;;;;;;21.00;37.82;96906.19;10472313;28;3194;-63
2024/01/20 19:44:00;;;;;;;;;;;;;;;21.00;39.26;96908.03;10472589;28;2972;-63
2024/01/20 19:49:00;;;;;;;;;;;;;;;20.97;37.66;96896.16;10474481;28;2980;-62
2024/01/20 19:54:01;;;;;;;;;;;;;;;20.92;39.25;96893.47;10478224;28;3127;-62
2024/01/20 19:59:02;;;;;;;;;;;;;;;21.03;38.91;96887.28;10477358;28;2797;-61
2024/01/20 20:04:03;;;;;;;;;;;;;;;21.00;38.56;96887.75;10475130;28;2914;-62
2024/01/20 20:09:04;;;;;;;;;;;;;;;21.03;37.11;96882.03;10475435;28;3027;-62
2024/01/20 20:14:04;;;;;;;;;;;;;;;21.00;39.00;96877.19;10474013;28;3164;-62
2024/01/20 20:19:05;;;;;;;;;;;;;;;20.98;38.77;96868.75;10471452;28;3443;-62
2024/01/20 20:24:05;;;;;;;;;;;;;;;20.94;39.42;96872.13;10471127;28;3523;-64
2024/01/20 20:29:05;;;;;;;;;;;;;;;20.68;38.26;96873.72;10473060;28;2841;-63
2024/01/20 20:34:06;;;;;;;;;;;;;;;20.87;37.53;96874.97;10471020;28;3114;-62
2024/01/20 20:39:07;;;;;;;;;;;;;;;20.93;37.69;96868.72;10471442;28;2945;-62
2024/01/20 20:44:08;;;;;;;;;;;;;;;20.99;38.03;96874.81;10471535;28;2924;-64
2024/01/20 20:49:08;;;;;;;;;;;;;;;20.93;38.52;96866.06;10475853;28;2957;-63
2024/01/20 20:54:09;;;;;;;;;;;;;;;20.99;36.05;96844.00;10472534;28;3071;-59
2024/01/20 20:59:09;;;;;;;;;;;;;;;20.95;37.37;96836.81;10473213;28;2814;-59
2024/01/20 21:04:10;;;;;;;;;;;;;;;20.95;38.46;96832.34;10473210;28;2894;-59
2024/01/20 21:09:11;;;;;;;;;;;;;;;20.94;38.58;96836.03;10470890;28;2964;-62
2024/01/20 21:14:12;;;;;;;;;;;;;;;20.99;38.33;96837.91;10473792;28;2934;-63
2024/01/20 21:19:13;;;;;;;;;;;;;;;20.97;36.44;96835.53;10472567;28;2909;-60
2024/01/20 21:24:13;;;;;;;;;;;;;;;20.79;37.98;96830.59;10469628;28;2862;-61
2024/01/20 21:29:13;;;;;;;;;;;;;;;20.73;38.94;96839.50;10476010;28;2799;-62
2024/01/20 21:34:13;;;;;;;;;;;;;;;20.74;38.96;96833.19;10470303;28;2929;-68
2024/01/20 21:39:14;;;;;;;;;;;;;;;20.86;37.76;96836.47;10471381;28;3250;-68
2024/01/20 21:44:14;;;;;;;;;;;;;;;20.85;38.16;96842.81;10468432;28;2937;-68
2024/01/20 21:49:14;;;;;;;;;;;;;;;20.82;36.75;96838.00;10469658;28;2766;-68
2024/01/20 21:54:14;;;;;;;;;;;;;;;20.74;37.10;96845.56;10471785;28;2866;-68
2024/01/20 21:59:15;;;;;;;;;;;;;;;20.74;38.43;96838.47;10470482;28;2913;-68
2024/01/20 22:04:15;;;;;;;;;;;;;;;20.68;36.23;96831.56;10467726;28;2961;-67
2024/01/20 22:09:15;;;;;;;;;;;;;;;20.63;37.79;96834.13;10464739;28;2993;-67
2024/01/20 22:14:15;;;;;;;;;;;;;;;20.57;37.50;96836.94;10464280;28;3130;-67
2024/01/20 22:19:16;;;;;;;;;;;;;;;20.54;37.19;96833.00;10466149;28;2978;-67
2024/01/20 22:24:16;;;;;;;;;;;;;;;20.58;35.60;96830.66;10469847;28;3070;-67
2024/01/20 22:29:16;;;;;;;;;;;;;;;20.54;36.97;96825.09;10467818;28;3094;-67
2024/01/20 22:34:17;;;;;;;;;;;;;;;20.45;38.84;96820.50;10468252;28;2949;-65
2024/01/20 22:39:17;;;;;;;;;;;;;;;20.51;37.44;96828.19;10466558;28;3146;-67
2024/01/20 22:44:17;;;;;;;;;;;;;;;20.43;35.87;96823.38;10467598;28;3048;-68
2024/01/20 22:49:17;;;;;;;;;;;;;;;20.43;36.40;96833.91;10472332;28;2899;-68
2024/01/20 22:54:22;;;;;;;;;;;;;;;20.44;38.05;96838.16;10472287;28;3028;-71
2024/01/20 22:59:22;;;;;;;;;;;;;;;20.40;35.62;96821.25;10466205;28;3067;-68
2024/01/20 23:04:22;;;;;;;;;;;;;;;20.42;37.13;96821.00;10467907;28;2945;-68
2024/01/20 23:09:25;;;;;;;;;;;;;;;20.34;37.52;96814.31;10469014;28;3066;-68
2024/01/20 23:14:26;;;;;;;;;;;;;;;20.42;36.76;96813.91;10481887;28;3032;-68
2024/01/20 23:19:26;;;;;;;;;;;;;;;20.40;37.44;96813.34;10483531;28;3013;-68
2024/01/20 23:24:26;;;;;;;;;;;;;;;20.39;36.34;96811.75;10482264;28;3125;-68
2024/01/20 23:29:27;;;;;;;;;;;;;;;20.43;37.16;96807.56;10477217;28;2872;-68
2024/01/20 23:34:27;;;;;;;;;;;;;;;20.34;38.03;96790.59;10475500;28;2856;-69
2024/01/20 23:39:28;;;;;;;;;;;;;;;20.36;37.18;96779.84;10473900;28;3318;-68
2024/01/20 23:44:28;;;;;;;;;;;;;;;20.37;36.02;96779.59;10473397;28;2960;-68
2024/01/20 23:49:28;;;;;;;;;;;;;;;20.34;37.19;96772.19;10473541;28;2972;-68
2024/01/20 23:54:28;;;;;;;;;;;;;;;20.38;35.48;96775.91;10477975;28;2950;-67
2024/01/20 23:59:29;;;;;;;;;;;;;;;20.32;36.78;96770.84;10468608;28;3243;-69
